Statewide Weather Sensors

Route Weather Station Name Milepost Date / Time Surface Status Surface Temp Precip Intensity Wind Avg Wind Gust Dir Dewpoint Humidity Air Temp Visibility
I 25 Wyo Hill 3.52 Nov 25, 2020 08:58 pm     None None 12 mph 14 mph NW 12.2°F 40% 33.8°F > 1/2 mi
I 25 Whitaker 30.2 Nov 25, 2020 08:58 pm Dry 27.0°F None None 7 mph 9 mph NW 8.6°F 56% 23.0°F > 1/2 mi
I 25 Bear Creek 46.77 Nov 25, 2020 08:58 pm Dry 34.7°F None None 14 mph 16 mph W 14.0°F 41% 35.6°F > 1/2 mi
I 25 Bordeaux 70.8 Nov 25, 2020 08:58 pm Dry 37.8°F None None 15 mph 21 mph SW 14.0°F 33% 41.0°F > 1/2 mi
I 25 Coleman 98.7 Nov 25, 2020 08:58 pm Dry 35.1°F None None 18 mph 26 mph W 14.0°F 31% 42.8°F > 1/2 mi
I 25 Platte/Converse County Line 119.9 Apr 28, 2020 01:32 pm                      
I 25 Deer Creek 164.2 Nov 25, 2020 08:58 pm Dry 35.8°F None None 11 mph 17 mph NW       > 1/2 mi
I 25 Hat Six 181.67 Nov 25, 2020 08:58 pm Dry 35.6°F None None 16 mph 23 mph W 15.8°F 36% 39.2°F > 1/2 mi
I 25 F Street Hill 189.51 Nov 25, 2020 08:58 pm Dry 36.1°F None None 19 mph 23 mph SW 15.8°F 38% 37.4°F > 1/2 mi
I 25 Twenty Mile Hill 207.2 Nov 25, 2020 08:58 pm     None None 8 mph 11 mph W 14.0°F 42% 33.8°F > 1/2 mi
I 25 Smokey Gap 228.58 Nov 25, 2020 08:58 pm Dry 28.9°F None None 2 mph 7 mph NW 14.0°F 43% 33.8°F > 1/2 mi
I 25 Tisdale 238.87 Nov 25, 2020 08:59 pm Dry 29.3°F None None 2 mph 4 mph N 14.0°F 44% 33.8°F > 1/2 mi
I 25 I-25 Divide 267.3 Nov 25, 2020 08:58 pm N/A   None None 14 mph 17 mph N 21.2°F 62% 32.0°F > 1/2 mi
I 80 Evanston POE .06 Nov 25, 2020 08:58 pm Dry 19.9°F None   1 mph 10 mph SW 17.6°F 74% 24.8°F > 1/2 mi
I 80 Evanston 4.2 Nov 25, 2020 08:58 pm N/A   None None 5 mph 7 mph SW 19.4°F 76% 24.8°F > 1/2 mi
I 80 Bear River Drive 6.94 Nov 25, 2020 08:58 pm Dry 20.5°F None   0 mph 7 mph SW 17.6°F 74% 24.8°F > 1/2 mi
I 80 Painter 10.16 Nov 25, 2020 08:58 pm Dry 27.0°F None None 1 mph 2 mph S 17.6°F 74% 24.8°F > 1/2 mi
I 80 First Divide 13.86 Nov 25, 2020 08:58 pm     None   6 mph 9 mph W 15.8°F 78% 21.2°F  
I 80 US 189 Interchange 17.66 Nov 25, 2020 08:58 pm Dry 27.9°F None None 4 mph 6 mph W 17.6°F 74% 24.8°F > 1/2 mi
I 80 Coal Road 20.95 Nov 25, 2020 08:58 pm Dry 27.7°F None None 10 mph 12 mph S 17.6°F 71% 26.6°F > 1/2 mi
I 80 Leroy 23.35 Nov 25, 2020 08:58 pm Dry 29.1°F None None 9 mph 12 mph W 17.6°F 66% 28.4°F > 1/2 mi
I 80 French 27.6 Nov 25, 2020 08:58 pm Dry 27.7°F None None 11 mph 14 mph W 17.6°F 73% 24.8°F > 1/2 mi
I 80 Church Butte 52.65 Nov 25, 2020 08:58 pm N/A   None None 6 mph 9 mph NW 17.6°F 65% 28.4°F > 1/2 mi
I 80 Peru Hill 82.31 Nov 25, 2020 08:58 pm     None   4 mph 6 mph W 14.0°F 58% 26.6°F  
I 80 Green River Tunnel 90.5 Nov 25, 2020 08:58 pm Dry 31.8°F None None 5 mph 17 mph SW 15.8°F 53% 30.2°F > 1/2 mi
I 80 Rock Springs West 97.9 Nov 25, 2020 08:58 pm N/A   None None 9 mph 12 mph W 17.6°F 55% 32.0°F > 1/2 mi
I 80 Baxter Road 111.5 Nov 25, 2020 08:58 pm     None None 57 mph 17 mph NE 17.6°F 54% 32.0°F > 1/2 mi
I 80 Mile Marker 124.5 124.5 Nov 25, 2020 08:58 pm N/A   None None 6 mph 9 mph SW 17.6°F 58% 30.2°F > 1/2 mi
I 80 Point of Rocks 129.8 Nov 25, 2020 08:58 pm N/A   None None 6 mph 11 mph N 17.6°F 57% 32.0°F > 1/2 mi
I 80 Bitter Creek 141.83 Nov 25, 2020 08:58 pm Dry 29.1°F None   11 mph 14 mph NW   11%    
I 80 Tipton 156.72 Nov 25, 2020 08:58 pm Dry 29.8°F None None 1 mph 2 mph SW 14.0°F 53% 30.2°F > 1/2 mi
I 80 Continental Divide 184.3 Nov 25, 2020 08:58 pm     None None 9 mph 14 mph SW 10.4°F 50% 26.6°F > 1/2 mi
I 80 Sinclair 221.7 Nov 25, 2020 08:58 pm N/A   None None 13 mph 19 mph SW 12.2°F 42% 33.8°F > 1/2 mi
I 80 Walcott Junction 234.66 Nov 25, 2020 08:58 pm N/A   None None 14 mph 17 mph S 15.8°F 54% 30.2°F > 1/2 mi
I 80 Dana Ridge 244.8 Nov 25, 2020 08:58 pm Dry 32.4°F None None 15 mph 22 mph SW 15.8°F 57% 28.4°F > 1/2 mi
I 80 Mile Marker 249.1 249.1 Nov 25, 2020 08:58 pm Dry 31.5°F None None 17 mph 22 mph NW 14.0°F 53% 30.2°F > 1/2 mi
I 80 Halleck Ridge 252.16 Nov 25, 2020 08:58 pm N/A   None None 23 mph 27 mph SW 14.0°F 51% 30.2°F > 1/2 mi
I 80 Elk Mountain 256.17 Nov 25, 2020 08:58 pm Trace Moisture 31.8°F None None 18 mph 29 mph S 14.0°F 45% 32.0°F > 1/2 mi
I 80 County Road 402 262 Nov 25, 2020 08:58 pm Dry 31.6°F None None 19 mph 34 mph S 12.2°F 44% 32.0°F > 1/2 mi
I 80 Wagonhound 266.58 Nov 25, 2020 08:58 pm Dry 27.9°F None None 24 mph 30 mph SW 15.8°F 57% 30.2°F > 1/2 mi
I 80 Foote Creek 269.5 Nov 25, 2020 08:58 pm Dry 28.9°F None None 22 mph 26 mph SW 15.8°F 56% 30.2°F > 1/2 mi
I 80 Arlington 271.8 Nov 25, 2020 08:58 pm Dry 30.6°F None None 29 mph 37 mph W 14.0°F 50% 30.2°F > 1/2 mi
I 80 Arlington East 273.85 Nov 25, 2020 08:58 pm Dry 30.2°F None None 24 mph 36 mph SW 15.8°F 52% 30.2°F > 1/2 mi
I 80 Cooper Cove 279.36 Nov 25, 2020 08:58 pm Dry 25.7°F None None 25 mph 43 mph S 15.8°F 48% 32.0°F > 1/2 mi
I 80 Strouss Hill 283.75 Nov 25, 2020 08:58 pm Dry 30.2°F None None 13 mph 30 mph W 14.0°F 47% 32.0°F > 1/2 mi
I 80 Quealy Dome 289.5 Nov 25, 2020 08:58 pm Dry 29.5°F None None 2 mph 7 mph SW 14.0°F 45% 33.8°F > 1/2 mi
I 80 Herrick Lane 297.66 Nov 25, 2020 08:58 pm Dry 30.2°F None None 17 mph 25 mph SW 14.0°F 43% 33.8°F > 1/2 mi
I 80 Summit East 325.8 Nov 25, 2020 08:58 pm Dry 24.1°F None None 16 mph 22 mph W 10.4°F 49% 26.6°F > 1/2 mi
I 80 Vedauwoo 329.4 Nov 25, 2020 08:58 pm Dry 26.1°F None None 16 mph 21 mph W 8.6°F 43% 28.4°F > 1/2 mi
I 80 Lone Tree 333.32 Nov 25, 2020 08:58 pm Dry 27.3°F None None 15 mph 22 mph W 8.6°F 41% 30.2°F > 1/2 mi
I 80 Buford East 336.1 Nov 25, 2020 08:58 pm Dry 28.4°F None None 11 mph 12 mph SW 10.4°F 43% 30.2°F > 1/2 mi
I 80 Remount Road 340.5 Nov 25, 2020 08:58 pm N/A   None None 7 mph 8 mph W 10.4°F 45% 30.2°F > 1/2 mi
I 80 Otto 347.69 Nov 25, 2020 08:58 pm Dry 30.2°F None None 11 mph 15 mph N 12.2°F 43% 32.0°F > 1/2 mi
I 80 MP 353 353 Nov 25, 2020 08:58 pm Trace Moisture 33.4°F None None 2 mph 4 mph W 12.2°F 39% 33.8°F > 1/2 mi
I 80 Cheyenne East 373 Nov 25, 2020 08:58 pm Dry 34.0°F None None 7 mph 11 mph NW 10.4°F 38% 33.8°F > 1/2 mi
I 90 Montana State Line .1 Nov 25, 2020 08:58 pm Chemically Wet 32.2°F None None 7 mph 8 mph NW 32.0°F 98% 32.0°F > 1/2 mi
I 90 Pompey Creek 35.3 Nov 25, 2020 08:58 pm N/A   None None 10 mph 13 mph W     17.6°F > 1/2 mi
I 90 Sheridan/Johnson County Line 41.33 Nov 25, 2020 08:58 pm N/A   Snow None 15 mph 20 mph E   98% 15.8°F > 1/2 mi
I 90 Piney Creek Interchange 44.7 Nov 25, 2020 08:58 pm Wet 32.2°F Snow None 11 mph 19 mph NW 32.0°F 99% 32.0°F > 1/2 mi
I 90 Kearny Divide 45.33 Nov 25, 2020 08:58 pm Trace Moisture   Snow None 15 mph 22 mph NW   42% 15.8°F > 1/2 mi
I 90 Indian Creek Road 83.3 Nov 25, 2020 08:58 pm Dry 34.2°F None None 11 mph 13 mph N 19.4°F 52% 33.8°F > 1/2 mi
I 90 Dead Horse 91.5 Nov 25, 2020 08:58 pm Dry 34.9°F None None 7 mph 10 mph N 24.8°F 60% 37.4°F > 1/2 mi
I 90 Mile Marker 108 108 Nov 25, 2020 08:58 pm N/A   None   8 mph 12 mph N 24.8°F 69% 32.0°F  
I 90 Inyan Kara 170.5 Nov 25, 2020 08:58 pm Wet 32.5°F Rain   7 mph 12 mph NW 26.6°F 79% 33.8°F  
I 90 Beulah 205.9 Nov 25, 2020 08:58 pm Dry 35.8°F None None 6 mph 9 mph NW 30.2°F 72% 37.4°F > 1/2 mi
US 14 Ucross 27.83 Nov 25, 2020 08:58 pm Dry 30.4°F Snow None 4 mph 7 mph NW 30.2°F 83% 33.8°F > 1/2 mi
US 14 Granite Pass 38.95 Nov 25, 2020 08:58 pm N/A   Light Slight 22 mph 22 mph SW 15.8°F 87% 17.6°F > 1/2 mi
US 16 Big Horn County Line 44.01 Nov 25, 2020 08:58 pm Trace Moisture 23.4°F None None 1 mph 2 mph NE 14.0°F 64% 23.0°F > 1/2 mi
US 191 Farson 40.45 Nov 25, 2020 08:58 pm N/A   None None 4 mph 6 mph SW 12.2°F 74% 19.4°F > 1/2 mi
US 191 Warren Bridge 119.9 Nov 25, 2020 08:58 pm Dry 21.4°F None None 3 mph 6 mph N 14.0°F 85% 17.6°F > 1/2 mi
US 20 Natrona 30 Nov 25, 2020 08:58 pm Dry 28.9°F None None 13 mph 16 mph SW 14.0°F 49% 30.2°F > 1/2 mi
US 20 Hiland 57.4 Nov 25, 2020 08:58 pm Dry 26.4°F None None 16 mph 18 mph S 14.0°F 60% 24.8°F > 1/2 mi
US 20 Van Tassell 57.85 Nov 25, 2020 08:58 pm Dry 29.3°F None None 9 mph 14 mph NW 15.8°F 49% 32.0°F > 1/2 mi
US 26 Wind River Lake 26.05 Nov 25, 2020 08:58 pm Ice Warning 19.8°F Snow Slight 4 mph 11 mph N 12.2°F 88% 15.8°F > 1/2 mi
US 287 Pumpkin Vine 420.4 Nov 25, 2020 08:58 pm N/A   None None 9 mph 14 mph NW 10.4°F 53% 26.6°F > 1/2 mi
US 30 Sage Junction 34 Nov 25, 2020 08:58 pm N/A   None None 1 mph 2 mph W 19.4°F 84% 23.0°F > 1/2 mi
US 30 Nugget Canyon 39.7 Nov 25, 2020 08:58 pm     None None 7 mph 11 mph N 19.4°F 70% 26.6°F > 1/2 mi
US 85 Gun Barrel 46.8 Nov 25, 2020 08:58 pm Dry 32.7°F None   11 mph 14 mph N 12.2°F 39% 35.6°F  
US 85 Four Corners 247.2 Nov 25, 2020 08:58 pm Dry 26.2°F None None 16 mph 27 mph N 24.8°F 85% 30.2°F > 1/2 mi
WY 120 Meeteetse 61.5 Nov 25, 2020 08:58 pm N/A   None None 9 mph 14 mph N 15.8°F 53% 30.2°F > 1/2 mi
WY 210 Wildcat Trail 21.52 Nov 25, 2020 08:58 pm Dry 28.4°F None None 8 mph 11 mph W 8.6°F 36% 32.0°F > 1/2 mi
WY 210 Hynds Lodge Road 24.55 Nov 25, 2020 08:58 pm N/A   None None 4 mph 9 mph W 8.6°F 37% 32.0°F > 1/2 mi
WY 22 Teton Pass 11.2 Nov 25, 2020 08:58 pm Ice Watch 21.0°F Snow None 2 mph 4 mph SW 14.0°F 91% 17.6°F > 1/2 mi
WY 220 Pathfinder Hill 80.1 Nov 25, 2020 08:58 pm Dry 27.9°F None None 9 mph 11 mph W 12.2°F 49% 30.2°F > 1/2 mi
WY 230 Skyline 230 113.2 Nov 25, 2020 08:58 pm Dry 22.8°F None None 7 mph 11 mph W 15.8°F 66% 26.6°F > 1/2 mi
WY 258 Outer Drive 13.77 Nov 25, 2020 08:58 pm Dry 40.1°F None None 21 mph 27 mph SW 14.0°F 34% 39.2°F > 1/2 mi
WY 28 New South Pass 41.4 Nov 25, 2020 08:58 pm Dry 18.7°F None None 5 mph 6 mph W 14.0°F 84% 17.6°F > 1/2 mi
WY 28 Lower Red Canyon 59.71 Nov 25, 2020 08:58 pm Dry 23.4°F None None 19 mph 31 mph SW 15.8°F 52% 30.2°F > 1/2 mi
WY 296 Chief Joseph 32.96 Nov 25, 2020 08:58 pm Ice Warning 19.4°F Snow None 3 mph 6 mph NW 19.4°F 92% 21.2°F > 1/2 mi
WY 372 Shute Creek 34 Nov 25, 2020 08:58 pm N/A   None None 5 mph 7 mph N        
WY 387 Pine Tree Junction 131.79 Sep 30, 2020 09:04 am                      
WY 487 Shirley Rim 37 Nov 25, 2020 08:58 pm Dry 26.8°F None None 9 mph 15 mph W 10.4°F 47% 28.4°F > 1/2 mi
WY 59 Belle Fourche 87 Nov 25, 2020 08:58 pm Dry 33.3°F None   6 mph 10 mph NW 24.8°F 76% 30.2°F  
WY 789 Beaver Rim 48.1 Nov 25, 2020 08:58 pm     None None 27 mph 32 mph SW 8.6°F 42% 28.4°F > 1/2 mi

Contact Us
Copyright 2020 Disclaimer Privacy Policy Media